Wallingford, Iowa
Current Conditions -  °F | °C
As of 1:52 PM on Thursday 30 Oct 2014 (Local Time) from KEST Reporting Station
Clear Clear  
Wind Chill: 55°   Ceiling: Unl
Heat Index: 55°   Visibility: 10mi
Dew Point: 35°   Wind: 13mph
Humidity: 47%   Direction: 10°N
Pressure: 30.06"   Gusts: NA
Location:  43.32°N, 94.79°W
Report Text: KEST 301852Z AUTO 01011KT 10SM CLR 13/02 A3006 RMK AO2 SLP182 T01280017
Loading
Personal Weather Stations






























Interactive Weather Map
Tropical Storm Tracking
New forecast layout! Learn more

10-Day Weather Forecast

Advertisements
Track Severe Weather on mobile